Time;durP1;ratioP1;P1;durP2;ratioP2;P2;SDS_P1;SDS_P2;PMS_P1;PMS_P2;Temp;Humidity;BMP_temperature;BMP_pressure;BME280_temperature;BME280_humidity;BME280_pressure;Samples;Min_cycle;Max_cycle;Signal;HPM_P1;HPM_P2
2022/06/22 00:02:23;;;;;;;4.07;3.77;;;18.10;1.00;;;;;;5050761;28;20568;-54
2022/06/22 00:04:55;;;;;;;4.73;3.70;;;18.10;1.00;;;;;;5047823;28;20241;-53
2022/06/22 00:07:26;;;;;;;3.40;3.10;;;18.10;1.00;;;;;;5046288;28;20989;-53
2022/06/22 00:09:55;;;;;;;4.20;3.60;;;18.00;1.00;;;;;;5050334;28;20481;-55
2022/06/22 00:12:27;;;;;;;4.40;4.00;;;18.00;1.00;;;;;;5050770;28;20787;-53
2022/06/22 00:14:56;;;;;;;4.77;4.00;;;17.90;1.00;;;;;;5050304;28;20446;-55
2022/06/22 00:17:36;;;;;;;4.60;4.20;;;17.90;1.00;;;;;;5050750;28;20449;-52
2022/06/22 00:20:01;;;;;;;6.97;4.20;;;17.90;1.00;;;;;;5049914;28;20438;-54
2022/06/22 00:22:27;;;;;;;5.17;4.07;;;17.90;1.00;;;;;;5048517;28;20935;-54
2022/06/22 00:25:09;;;;;;;4.73;3.57;;;17.90;1.00;;;;;;5050403;28;20695;-54
2022/06/22 00:27:36;;;;;;;5.03;4.10;;;17.90;1.00;;;;;;5048625;28;20199;-55
2022/06/22 00:30:07;;;;;;;4.57;4.17;;;18.00;1.00;;;;;;5049981;28;20442;-53
2022/06/22 00:32:33;;;;;;;6.17;4.17;;;18.00;1.00;;;;;;5051199;28;20446;-56
2022/06/22 00:35:37;;;;;;;4.27;3.97;;;18.10;1.00;;;;;;5053098;28;20456;-54
2022/06/22 00:38:05;;;;;;;4.23;3.43;;;18.10;1.00;;;;;;5048675;28;20696;-54
2022/06/22 00:40:34;;;;;;;4.50;4.10;;;18.20;1.00;;;;;;5047332;28;20446;-54
2022/06/22 00:43:00;;;;;;;5.17;4.40;;;18.20;1.00;;;;;;5048250;28;20458;-54
2022/06/22 00:45:28;;;;;;;5.17;4.60;;;18.30;1.00;;;;;;5050038;28;20804;-54
2022/06/22 00:48:01;;;;;;;4.87;4.30;;;18.20;1.00;;;;;;5049524;28;20220;-52
2022/06/22 00:50:37;;;;;;;3.97;3.57;;;18.10;1.00;;;;;;5049846;28;20457;-52
2022/06/22 00:53:11;;;;;;;4.93;4.40;;;18.10;1.00;;;;;;5047727;28;20843;-57
2022/06/22 00:55:39;;;;;;;4.37;4.00;;;18.10;1.00;;;;;;5047169;28;20439;-54
2022/06/22 00:58:08;;;;;;;5.03;3.87;;;18.20;1.00;;;;;;5049744;28;20477;-54
2022/06/22 01:00:39;;;;;;;4.77;3.70;;;18.10;1.00;;;;;;5049278;28;20450;-55
2022/06/22 01:03:20;;;;;;;3.80;3.40;;;18.10;1.00;;;;;;5048297;28;20446;-53
2022/06/22 01:05:55;;;;;;;4.87;4.23;;;18.10;1.00;;;;;;5047718;28;20446;-54
2022/06/22 01:08:34;;;;;;;4.10;3.80;;;18.00;1.00;;;;;;5049203;28;20573;-56
2022/06/22 01:14:28;;;;;;;4.20;3.80;;;17.90;1.00;;;;;;5048503;28;20469;-55
2022/06/22 01:16:57;;;;;;;4.27;3.90;;;17.80;1.00;;;;;;5050617;28;20503;-53
2022/06/22 01:19:44;;;;;;;5.33;3.80;;;17.70;1.00;;;;;;5058494;28;20488;-55
2022/06/22 01:22:32;;;;;;;4.13;3.47;;;17.70;1.00;;;;;;5053214;28;20442;-55
2022/06/22 01:25:17;;;;;;;4.90;4.40;;;17.70;1.00;;;;;;5055168;28;20945;-54
2022/06/22 01:27:45;;;;;;;3.80;3.50;;;17.70;1.00;;;;;;5054055;28;20960;-53
2022/06/22 01:30:38;;;;;;;4.80;3.87;;;17.80;1.00;;;;;;5053294;28;20469;-55
2022/06/22 01:33:14;;;;;;;4.83;4.00;;;17.60;1.00;;;;;;5057282;28;20438;-53
2022/06/22 01:35:39;;;;;;;7.10;4.10;;;17.60;1.00;;;;;;5054284;28;20426;-54
2022/06/22 01:38:18;;;;;;;4.57;4.27;;;17.50;1.00;;;;;;5053442;28;20495;-53
2022/06/22 01:40:57;;;;;;;5.47;4.97;;;17.40;1.00;;;;;;5054021;28;20180;-56
2022/06/22 01:43:48;;;;;;;6.37;4.10;;;17.40;1.00;;;;;;5053195;28;20434;-55
2022/06/22 01:46:23;;;;;;;4.70;4.27;;;17.40;1.00;;;;;;5052579;28;20607;-57
2022/06/22 01:49:19;;;;;;;4.50;4.20;;;18.10;1.00;;;;;;5052299;28;20865;-55
2022/06/22 01:51:50;;;;;;;4.77;4.07;;;17.50;1.00;;;;;;5052546;28;20474;-53
2022/06/22 01:54:40;;;;;;;4.50;3.80;;;17.50;1.00;;;;;;5051750;28;20947;-55
2022/06/22 01:57:25;;;;;;;4.17;3.77;;;17.60;1.00;;;;;;5052010;28;20468;-54
2022/06/22 02:00:06;;;;;;;4.97;4.47;;;17.60;1.00;;;;;;5052989;28;20495;-54
2022/06/22 02:02:57;;;;;;;4.40;4.10;;;17.50;1.00;;;;;;5053162;28;20779;-53
2022/06/22 02:05:38;;;;;;;5.03;4.07;;;17.50;1.00;;;;;;5053150;28;20504;-54
2022/06/22 02:08:20;;;;;;;4.33;4.00;;;17.50;1.00;;;;;;5053187;28;20462;-55
2022/06/22 02:11:01;;;;;;;4.63;4.23;;;17.70;1.00;;;;;;5052501;28;20496;-55
2022/06/22 02:13:39;;;;;;;4.93;4.30;;;17.60;1.00;;;;;;5048921;28;20446;-54
2022/06/22 02:16:23;;;;;;;4.87;3.70;;;17.70;1.00;;;;;;5051955;28;20951;-54
2022/06/22 02:18:51;;;;;;;4.07;3.70;;;17.80;1.00;;;;;;5057633;28;20446;-52
2022/06/22 02:21:19;;;;;;;5.00;4.10;;;17.90;1.00;;;;;;5054849;28;20456;-54
2022/06/22 02:23:50;;;;;;;4.40;3.93;;;17.80;1.00;;;;;;5056653;28;20787;-55
2022/06/22 02:26:35;;;;;;;4.00;3.60;;;17.90;1.00;;;;;;5052358;28;20444;-54
2022/06/22 02:29:01;;;;;;;7.03;4.37;;;18.00;1.00;;;;;;5051008;28;20551;-54
2022/06/22 02:31:28;;;;;;;4.37;4.07;;;17.90;1.00;;;;;;5052327;28;20443;-54
2022/06/22 02:33:55;;;;;;;4.03;3.70;;;17.80;1.00;;;;;;5052214;28;20442;-55
2022/06/22 02:36:24;;;;;;;6.17;4.00;;;17.80;1.00;;;;;;5051797;28;21789;-54
2022/06/22 02:38:52;;;;;;;5.90;4.30;;;17.80;1.00;;;;;;5052126;28;20453;-55
2022/06/22 02:44:30;;;;;;;3.83;3.40;;;17.80;1.00;;;;;;5052136;28;20580;-52
2022/06/22 02:47:10;;;;;;;4.00;3.70;;;17.70;1.00;;;;;;5048718;28;20986;-53
2022/06/22 02:49:41;;;;;;;6.40;4.00;;;17.60;1.00;;;;;;5049878;28;20465;-53
2022/06/22 02:52:10;;;;;;;3.77;3.50;;;17.60;1.00;;;;;;5051804;28;20405;-54
2022/06/22 02:54:42;;;;;;;3.77;3.50;;;17.70;1.00;;;;;;5049879;28;20903;-55
2022/06/22 02:57:26;;;;;;;4.67;3.70;;;17.60;1.00;;;;;;5051764;28;20431;-55
2022/06/22 02:59:53;;;;;;;4.20;3.87;;;17.70;1.00;;;;;;5050302;28;20529;-55
2022/06/22 03:02:23;;;;;;;3.87;3.40;;;17.80;1.00;;;;;;5051470;28;20438;-54
2022/06/22 03:04:51;;;;;;;3.80;3.57;;;17.90;1.00;;;;;;5051575;28;20500;-52
2022/06/22 03:07:18;;;;;;;4.33;4.03;;;18.00;1.00;;;;;;5051433;28;21064;-55
2022/06/22 03:09:46;;;;;;;3.63;3.40;;;18.00;1.00;;;;;;5050949;28;20462;-55
2022/06/22 03:12:13;;;;;;;5.30;3.73;;;18.00;1.00;;;;;;5051449;28;20790;-51
2022/06/22 03:15:05;;;;;;;4.80;4.43;;;18.00;1.00;;;;;;5051190;28;20410;-54
2022/06/22 03:17:35;;;;;;;4.23;3.83;;;18.00;1.00;;;;;;5050903;28;20441;-53
2022/06/22 03:20:11;;;;;;;4.50;3.83;;;17.90;1.00;;;;;;5051438;28;20430;-53
2022/06/22 03:22:43;;;;;;;6.43;3.83;;;17.90;1.00;;;;;;5051746;28;20823;-54
2022/06/22 03:25:19;;;;;;;3.87;3.57;;;17.90;1.00;;;;;;5050306;28;20443;-56
2022/06/22 03:28:08;;;;;;;4.30;3.10;;;18.00;1.00;;;;;;5050660;28;20443;-54
2022/06/22 03:30:45;;;;;;;4.93;3.83;;;18.20;1.00;;;;;;5050677;28;20447;-55
2022/06/22 03:33:15;;;;;;;4.17;3.77;;;18.40;1.00;;;;;;5050648;28;20461;-52
2022/06/22 03:35:45;;;;;;;3.90;3.60;;;18.70;1.00;;;;;;5050944;28;20565;-55
2022/06/22 03:38:21;;;;;;;4.37;3.80;;;19.10;1.00;;;;;;5050681;28;20816;-53
2022/06/22 03:40:56;;;;;;;5.73;3.70;;;19.10;1.00;;;;;;5050221;28;20851;-54
2022/06/22 03:43:43;;;;;;;4.60;3.90;;;19.10;1.00;;;;;;5050587;28;20496;-54
2022/06/22 03:46:20;;;;;;;3.57;3.27;;;19.10;1.00;;;;;;5046014;28;20835;-55
2022/06/22 03:48:52;;;;;;;4.27;3.63;;;19.30;1.00;;;;;;5050276;28;20473;-53
2022/06/22 03:51:22;;;;;;;4.20;3.80;;;19.60;1.00;;;;;;5050675;28;20443;-55
2022/06/22 03:54:08;;;;;;;4.20;3.90;;;19.70;1.00;;;;;;5050552;28;20947;-54
2022/06/22 03:56:37;;;;;;;3.60;3.30;;;19.60;1.00;;;;;;5050729;28;20512;-55
2022/06/22 03:59:05;;;;;;;4.13;3.73;;;19.20;1.00;;;;;;5050161;28;20447;-56
2022/06/22 04:01:31;;;;;;;5.47;3.57;;;;;;;;;;5050037;28;20442;-53
2022/06/22 04:03:57;;;;;;;3.50;3.20;;;19.10;1.00;;;;;;5050714;28;20446;-54
2022/06/22 04:06:32;;;;;;;3.60;3.30;;;19.00;1.00;;;;;;5050938;28;20433;-53
2022/06/22 04:09:04;;;;;;;4.30;3.90;;;19.00;1.00;;;;;;5049562;28;20473;-54
2022/06/22 04:11:36;;;;;;;4.17;3.87;;;18.80;1.00;;;;;;5050382;28;21351;-54
2022/06/22 04:14:10;;;;;;;5.30;3.90;;;18.80;1.00;;;;;;5048907;28;20521;-53
2022/06/22 04:16:42;;;;;;;4.20;3.90;;;18.80;1.00;;;;;;5053265;28;20441;-53
2022/06/22 04:19:30;;;;;;;3.77;3.40;;;18.80;1.00;;;;;;5050096;28;20449;-54
2022/06/22 04:22:06;;;;;;;4.40;4.00;;;18.90;1.00;;;;;;5045869;28;20973;-56
2022/06/22 04:24:45;;;;;;;4.03;3.73;;;18.90;1.00;;;;;;5052941;28;20503;-55
2022/06/22 04:27:28;;;;;;;4.77;3.60;;;18.90;1.00;;;;;;5049130;28;20533;-53
2022/06/22 04:29:57;;;;;;;4.10;3.70;;;;;;;;;;5049611;28;20470;-54
2022/06/22 04:32:28;;;;;;;5.40;3.80;;;18.90;1.00;;;;;;5048742;28;20478;-53
2022/06/22 04:35:03;;;;;;;5.40;4.50;;;18.80;1.00;;;;;;5049963;28;20528;-55
2022/06/22 04:37:44;;;;;;;5.70;3.50;;;19.10;1.00;;;;;;5049985;28;20438;-53
2022/06/22 04:40:24;;;;;;;4.13;3.73;;;19.10;1.00;;;;;;5049539;28;20517;-54
2022/06/22 04:42:59;;;;;;;4.20;3.80;;;19.10;1.00;;;;;;5050302;28;20439;-60
2022/06/22 04:45:31;;;;;;;5.13;4.37;;;19.20;1.00;;;;;;5035376;28;20442;-59
2022/06/22 04:48:25;;;;;;;4.50;4.10;;;19.20;1.00;;;;;;5050393;28;20470;-59
2022/06/22 04:50:57;;;;;;;4.33;3.93;;;19.40;1.00;;;;;;5046718;28;20409;-58
2022/06/22 04:53:38;;;;;;;4.67;4.20;;;19.40;1.00;;;;;;5060422;28;20438;-58
2022/06/22 04:56:11;;;;;;;4.03;3.67;;;19.40;1.00;;;;;;5047922;28;20441;-60
2022/06/22 04:58:44;;;;;;;5.77;3.87;;;19.40;1.00;;;;;;5050440;28;20500;-59
2022/06/22 05:01:19;;;;;;;4.63;3.77;;;19.40;1.00;;;;;;5049207;28;20838;-58
2022/06/22 05:03:45;;;;;;;4.47;4.00;;;19.50;1.00;;;;;;5049369;28;20438;-59
2022/06/22 05:06:20;;;;;;;6.77;4.10;;;19.60;1.00;;;;;;5048643;28;20939;-59
2022/06/22 05:08:54;;;;;;;5.63;4.83;;;19.80;1.00;;;;;;5048891;28;20472;-59
2022/06/22 05:11:32;;;;;;;10.27;4.07;;;20.00;1.00;;;;;;5048474;28;20681;-59
2022/06/22 05:14:00;;;;;;;5.43;4.00;;;20.30;1.00;;;;;;5050094;28;20518;-59
2022/06/22 05:16:33;;;;;;;5.63;4.27;;;20.50;1.00;;;;;;5055823;28;20417;-59
2022/06/22 05:19:00;;;;;;;4.87;4.20;;;20.60;1.00;;;;;;5049452;28;21141;-59
2022/06/22 05:21:45;;;;;;;4.60;3.90;;;20.90;1.00;;;;;;5052442;28;20636;-59
2022/06/22 05:24:23;;;;;;;7.40;4.10;;;21.00;1.00;;;;;;5047983;28;20446;-58
2022/06/22 05:26:50;;;;;;;3.70;3.40;;;21.30;1.00;;;;;;5050989;28;20547;-60
2022/06/22 05:29:32;;;;;;;5.60;4.13;;;21.40;1.00;;;;;;5052555;28;20993;-60
2022/06/22 05:32:03;;;;;;;4.20;3.67;;;21.70;1.00;;;;;;5048431;28;20499;-59
2022/06/22 05:34:34;;;;;;;4.30;3.23;;;21.90;1.00;;;;;;5043546;28;21376;-59
2022/06/22 05:37:32;;;;;;;5.53;3.87;;;22.20;1.00;;;;;;5049100;28;20418;-60
2022/06/22 05:39:59;;;;;;;5.40;3.20;;;22.40;1.00;;;;;;5036667;28;20572;-60
2022/06/22 05:42:28;;;;;;;5.40;4.27;;;22.30;1.00;;;;;;5049048;28;20521;-59
2022/06/22 05:44:54;;;;;;;5.07;4.00;;;22.10;1.00;;;;;;5048672;28;22357;-58
2022/06/22 05:47:27;;;;;;;6.60;3.93;;;24.30;1.00;;;;;;5048653;28;20558;-59
2022/06/22 05:50:29;;;;;;;9.90;3.67;;;21.90;1.00;;;;;;5048331;28;20282;-58
2022/06/22 05:53:02;;;;;;;5.80;3.60;;;21.90;1.00;;;;;;5047896;28;20922;-59
2022/06/22 05:55:46;;;;;;;7.73;3.57;;;22.00;1.00;;;;;;5046871;28;20417;-58
2022/06/22 05:58:26;;;;;;;11.80;4.40;;;22.10;1.00;;;;;;5048328;28;20530;-60
2022/06/22 06:00:55;;;;;;;7.37;3.73;;;22.10;1.00;;;;;;5048901;28;20989;-59
2022/06/22 06:03:42;;;;;;;4.67;2.97;;;22.30;1.00;;;;;;5051925;28;20479;-59
2022/06/22 06:06:16;;;;;;;4.80;3.77;;;22.50;1.00;;;;;;5052338;28;20472;-58
2022/06/22 06:08:47;;;;;;;5.27;3.10;;;22.60;1.00;;;;;;5055299;28;20604;-59
2022/06/22 06:11:20;;;;;;;8.80;3.60;;;22.60;1.00;;;;;;5050960;28;20446;-59
2022/06/22 06:13:51;;;;;;;4.90;3.13;;;22.70;1.00;;;;;;5052538;28;20434;-59
2022/06/22 06:16:26;;;;;;;3.40;3.10;;;22.70;1.00;;;;;;5051707;28;20452;-57
2022/06/22 06:18:58;;;;;;;5.03;3.23;;;22.70;1.00;;;;;;5051710;28;20442;-59
2022/06/22 06:21:33;;;;;;;8.40;4.20;;;23.20;1.00;;;;;;5053929;28;20761;-60
2022/06/22 06:24:14;;;;;;;5.47;3.27;;;;;;;;;;5051748;28;20507;-59
2022/06/22 06:30:25;;;;;;;4.20;2.73;;;24.50;1.00;;;;;;5057373;28;20593;-59
2022/06/22 06:32:54;;;;;;;3.97;2.50;;;24.60;1.00;;;;;;5050253;28;20973;-59
2022/06/22 06:35:28;;;;;;;3.07;2.60;;;24.50;1.00;;;;;;5059137;28;20439;-59
2022/06/22 06:37:56;;;;;;;6.03;2.93;;;24.10;1.00;;;;;;5052017;28;20435;-58
2022/06/22 06:40:44;;;;;;;7.80;2.30;;;24.00;1.00;;;;;;5057057;28;20517;-59
2022/06/22 06:43:30;;;;;;;5.03;2.80;;;23.90;1.00;;;;;;5051143;28;20874;-59
2022/06/22 06:45:58;;;;;;;2.43;2.23;;;23.80;1.00;;;;;;5051562;28;20504;-58
2022/06/22 06:48:26;;;;;;;2.77;2.53;;;23.60;1.00;;;;;;5051054;28;20463;-59
2022/06/22 06:50:56;;;;;;;3.50;2.60;;;23.60;1.00;;;;;;5051727;28;20442;-58
2022/06/22 06:53:25;;;;;;;4.07;2.57;;;23.50;1.00;;;;;;5051378;28;20438;-59
2022/06/22 06:56:30;;;;;;;5.50;2.50;;;23.40;1.00;;;;;;5051758;28;20533;-59
2022/06/22 06:59:08;;;;;;;4.63;2.40;;;23.40;1.00;;;;;;5048382;28;20796;-59
2022/06/22 07:01:37;;;;;;;4.73;2.47;;;23.40;1.00;;;;;;5050550;28;20468;-59
2022/06/22 07:04:11;;;;;;;6.00;3.20;;;23.50;1.00;;;;;;5050254;28;20449;-59
2022/06/22 07:06:39;;;;;;;7.30;3.20;;;23.70;1.00;;;;;;5050768;28;20442;-60
2022/06/22 07:09:16;;;;;;;6.60;3.13;;;23.90;1.00;;;;;;5050642;28;20828;-58
2022/06/22 07:11:52;;;;;;;5.47;2.37;;;24.00;1.00;;;;;;5051043;28;20445;-58
2022/06/22 07:14:26;;;;;;;6.03;2.67;;;24.20;1.00;;;;;;5050489;28;20819;-59
2022/06/22 07:16:57;;;;;;;4.03;2.63;;;24.50;1.00;;;;;;5051271;28;20976;-59
2022/06/22 07:19:28;;;;;;;4.20;2.37;;;24.70;1.00;;;;;;5050880;28;20804;-58
2022/06/22 07:22:07;;;;;;;6.60;2.50;;;25.00;1.00;;;;;;5047624;28;20466;-60
2022/06/22 07:25:02;;;;;;;5.40;2.60;;;25.20;1.00;;;;;;5050843;28;20960;-60
2022/06/22 07:27:36;;;;;;;13.73;2.30;;;25.40;1.00;;;;;;5049402;28;20505;-60
2022/06/22 07:30:18;;;;;;;4.73;2.80;;;25.30;1.00;;;;;;5050780;28;20439;-60
2022/06/22 07:33:03;;;;;;;5.67;1.93;;;25.10;1.00;;;;;;5057357;28;20531;-60
2022/06/22 07:35:45;;;;;;;2.33;2.00;;;24.80;1.00;;;;;;5050950;28;20954;-58
2022/06/22 07:38:50;;;;;;;3.53;1.90;;;24.60;1.00;;;;;;5047431;28;20452;-59
2022/06/22 07:41:20;;;;;;;2.60;2.40;;;24.50;1.00;;;;;;5047992;28;20547;-58
2022/06/22 07:43:49;;;;;;;2.53;1.90;;;24.50;1.00;;;;;;5050686;28;20439;-58
2022/06/22 07:46:42;;;;;;;2.43;2.10;;;24.50;1.00;;;;;;5050624;28;20466;-58
2022/06/22 07:49:14;;;;;;;3.80;2.63;;;24.50;1.00;;;;;;5049050;28;20481;-59
2022/06/22 07:51:49;;;;;;;5.20;2.33;;;24.50;1.00;;;;;;5050264;28;20438;-60
2022/06/22 07:54:40;;;;;;;7.17;2.13;;;24.40;1.00;;;;;;5050755;28;21030;-60
2022/06/22 07:57:17;;;;;;;3.47;1.77;;;24.60;1.00;;;;;;5047315;28;20866;-59
2022/06/22 08:00:14;;;;;;;4.60;2.27;;;24.80;1.00;;;;;;5050118;28;20947;-59
2022/06/22 08:02:58;;;;;;;5.17;2.57;;;25.00;1.00;;;;;;5049112;28;20425;-60
2022/06/22 08:05:29;;;;;;;4.40;2.37;;;25.10;1.00;;;;;;5049045;28;20454;-60
2022/06/22 08:08:16;;;;;;;3.60;2.00;;;25.40;1.00;;;;;;5049570;28;20454;-61
2022/06/22 08:10:54;;;;;;;2.43;2.10;;;25.50;1.00;;;;;;5054747;28;20439;-58
2022/06/22 08:13:51;;;;;;;2.50;2.10;;;25.70;1.00;;;;;;5050391;28;20480;-59
2022/06/22 08:16:35;;;;;;;3.07;1.87;;;25.80;1.00;;;;;;5049697;28;20424;-58
2022/06/22 08:19:01;;;;;;;2.70;2.13;;;25.90;1.00;;;;;;5050008;28;20898;-59
2022/06/22 08:21:29;;;;;;;2.60;2.40;;;26.10;1.00;;;;;;5050121;28;20521;-59
2022/06/22 08:23:57;;;;;;;3.57;2.13;;;26.20;1.00;;;;;;5050046;28;20450;-58
2022/06/22 08:26:29;;;;;;;3.03;2.23;;;26.40;1.00;;;;;;5055021;28;20520;-59
2022/06/22 08:28:56;;;;;;;4.83;2.40;;;26.60;1.00;;;;;;5049452;28;20508;-59
2022/06/22 08:31:26;;;;;;;2.80;2.03;;;26.60;1.00;;;;;;5050100;28;20529;-60
2022/06/22 08:34:03;;;;;;;2.27;2.00;;;26.50;1.00;;;;;;5048099;28;20485;-59
2022/06/22 08:36:57;;;;;;;3.33;2.03;;;26.50;1.00;;;;;;5045944;28;21001;-59
2022/06/22 08:39:25;;;;;;;5.00;2.00;;;26.70;1.00;;;;;;5048606;28;20435;-60
2022/06/22 08:42:02;;;;;;;4.30;2.30;;;26.70;1.00;;;;;;5054715;28;20470;-59
2022/06/22 08:44:45;;;;;;;2.33;2.10;;;26.80;1.00;;;;;;5050006;28;20420;-60
2022/06/22 08:47:29;;;;;;;3.13;2.83;;;27.00;1.00;;;;;;5048662;28;20461;-60
2022/06/22 08:50:10;;;;;;;4.40;3.40;;;27.00;1.00;;;;;;5049353;28;20441;-60
2022/06/22 08:53:03;;;;;;;3.20;2.90;;;26.90;1.00;;;;;;5049713;28;20759;-59
2022/06/22 08:55:50;;;;;;;4.00;2.60;;;27.10;1.00;;;;;;5047942;28;20483;-59
2022/06/22 08:58:43;;;;;;;3.70;2.10;;;27.20;1.00;;;;;;5048261;28;20448;-59
2022/06/22 09:01:35;;;;;;;3.40;2.50;;;27.20;1.00;;;;;;5048839;28;20511;-59
2022/06/22 09:04:03;;;;;;;7.67;2.93;;;27.00;1.00;;;;;;5049271;28;20421;-59
2022/06/22 09:06:44;;;;;;;4.03;2.67;;;26.90;1.00;;;;;;5050341;28;20474;-59
2022/06/22 09:09:28;;;;;;;3.87;2.60;;;27.00;1.00;;;;;;5045799;28;20556;-59
2022/06/22 09:11:59;;;;;;;3.33;2.47;;;27.10;1.00;;;;;;5048655;28;20775;-60
2022/06/22 09:14:34;;;;;;;5.53;2.20;;;27.30;1.00;;;;;;5049412;28;20450;-59
2022/06/22 09:17:25;;;;;;;2.70;1.90;;;27.50;1.00;;;;;;5048971;28;20408;-59
2022/06/22 09:20:15;;;;;;;4.00;2.37;;;27.60;1.00;;;;;;5037594;28;20808;-58
2022/06/22 09:22:57;;;;;;;3.20;2.40;;;28.00;1.00;;;;;;5049264;28;20431;-59
2022/06/22 09:25:47;;;;;;;5.30;2.73;;;28.50;1.00;;;;;;5049249;28;20448;-59
2022/06/22 09:28:24;;;;;;;2.37;2.17;;;28.80;1.00;;;;;;5047803;28;20433;-60
2022/06/22 09:31:14;;;;;;;3.13;2.10;;;28.80;1.00;;;;;;5048848;28;20448;-58
2022/06/22 09:33:57;;;;;;;3.83;2.30;;;28.60;1.00;;;;;;5049129;28;20427;-58
2022/06/22 09:36:45;;;;;;;3.43;2.60;;;28.20;1.00;;;;;;5048414;28;20478;-58
2022/06/22 09:39:38;;;;;;;7.40;2.83;;;28.00;1.00;;;;;;5050940;28;20531;-58
2022/06/22 09:42:36;;;;;;;9.17;2.87;;;27.80;1.00;;;;;;5055561;28;20453;-60
2022/06/22 09:45:26;;;;;;;7.83;2.20;;;27.90;1.00;;;;;;5052896;28;20438;-59
2022/06/22 09:48:18;;;;;;;4.40;2.37;;;28.00;1.00;;;;;;5052563;28;20481;-59
2022/06/22 09:51:10;;;;;;;7.60;2.40;;;27.70;1.00;;;;;;5052648;28;20442;-58
2022/06/22 09:53:52;;;;;;;2.67;1.90;;;27.90;1.00;;;;;;5052712;28;20417;-59
2022/06/22 09:56:52;;;;;;;2.70;2.30;;;28.10;1.00;;;;;;5052051;28;20535;-58
2022/06/22 09:59:23;;;;;;;3.20;2.30;;;28.60;1.00;;;;;;5050792;28;20533;-59
2022/06/22 10:01:55;;;;;;;5.03;2.70;;;28.80;1.00;;;;;;5054445;28;20470;-58
2022/06/22 10:04:32;;;;;;;5.57;2.50;;;28.80;1.00;;;;;;5052330;28;20446;-59
2022/06/22 10:07:22;;;;;;;5.80;2.77;;;28.70;1.00;;;;;;5052627;28;20526;-60
2022/06/22 10:09:53;;;;;;;3.90;2.70;;;28.70;1.00;;;;;;5049136;28;20798;-59
2022/06/22 10:12:19;;;;;;;6.97;2.53;;;28.50;1.00;;;;;;5052227;28;20435;-59
2022/06/22 10:15:05;;;;;;;5.73;2.60;;;28.40;1.00;;;;;;5052187;28;20442;-59
2022/06/22 10:17:46;;;;;;;2.90;2.13;;;28.40;1.00;;;;;;5050280;28;20438;-59
2022/06/22 10:20:21;;;;;;;3.13;1.90;;;28.50;1.00;;;;;;5051997;28;20500;-59
2022/06/22 10:23:05;;;;;;;2.20;2.00;;;28.60;1.00;;;;;;5052243;28;20465;-59
2022/06/22 10:25:36;;;;;;;3.00;1.80;;;28.70;1.00;;;;;;5051920;28;20465;-59
2022/06/22 10:28:18;;;;;;;2.37;1.60;;;28.50;1.00;;;;;;5054033;28;20414;-58
2022/06/22 10:31:12;;;;;;;3.23;1.90;;;28.20;1.00;;;;;;5050996;28;20438;-60
2022/06/22 10:33:52;;;;;;;2.90;1.70;;;28.00;1.00;;;;;;5051026;28;21001;-60
2022/06/22 10:36:21;;;;;;;2.40;2.20;;;27.90;1.00;;;;;;5051784;28;20413;-59
2022/06/22 10:39:05;;;;;;;2.97;2.17;;;28.20;1.00;;;;;;5050948;28;20930;-58
2022/06/22 10:45:10;;;;;;;13.27;2.57;;;28.70;1.00;;;;;;5051666;28;20461;-59
2022/06/22 10:47:51;;;;;;;6.00;2.20;;;29.10;1.00;;;;;;5051618;28;20485;-59
2022/06/22 10:50:35;;;;;;;4.57;2.63;;;29.10;1.00;;;;;;5050887;28;20464;-60
2022/06/22 10:53:22;;;;;;;2.00;1.80;;;29.10;1.00;;;;;;5058369;28;20747;-60
2022/06/22 10:55:55;;;;;;;2.10;1.90;;;28.90;1.00;;;;;;5052249;28;20426;-59
2022/06/22 10:58:48;;;;;;;2.30;2.10;;;29.00;1.00;;;;;;5052474;28;20409;-59
2022/06/22 11:01:25;;;;;;;4.50;2.00;;;29.50;1.00;;;;;;5048573;28;20446;-59
2022/06/22 11:04:01;;;;;;;3.73;2.17;;;29.30;1.00;;;;;;5050372;28;20412;-59
2022/06/22 11:07:02;;;;;;;4.00;2.10;;;29.10;1.00;;;;;;5051401;28;20441;-60
2022/06/22 11:09:41;;;;;;;4.90;2.10;;;29.10;1.00;;;;;;5040600;28;20525;-59
2022/06/22 11:12:18;;;;;;;2.80;1.90;;;28.90;1.00;;;;;;5051315;28;20421;-58
2022/06/22 11:14:50;;;;;;;2.50;2.30;;;28.60;1.00;;;;;;5051151;28;20528;-59
2022/06/22 11:17:40;;;;;;;2.27;2.17;;;28.70;1.00;;;;;;5051556;28;21109;-59
2022/06/22 11:20:32;;;;;;;2.93;2.10;;;28.60;1.00;;;;;;5049894;28;20412;-59
2022/06/22 11:23:11;;;;;;;4.23;2.20;;;28.70;1.00;;;;;;5051190;28;20525;-58
2022/06/22 11:32:10;;;;;;;2.20;2.00;;;29.20;1.00;;;;;;5050996;28;20523;-59
2022/06/22 11:34:53;;;;;;;2.30;2.10;;;29.30;1.00;;;;;;5050920;28;20446;-60
2022/06/22 11:37:30;;;;;;;2.33;2.23;;;29.60;1.00;;;;;;5050368;28;20880;-59
2022/06/22 11:40:23;;;;;;;3.67;2.00;;;29.50;1.00;;;;;;5050614;28;20519;-60
2022/06/22 11:43:16;;;;;;;5.00;2.20;;;29.90;1.00;;;;;;5050133;28;20928;-58
2022/06/22 11:45:58;;;;;;;2.33;2.00;;;30.10;1.00;;;;;;5048806;28;20879;-58
2022/06/22 11:48:46;;;;;;;2.40;2.20;;;30.40;1.00;;;;;;5050688;28;20466;-59
2022/06/22 11:51:47;;;;;;;7.90;2.10;;;30.60;1.00;;;;;;5049170;28;20413;-59
2022/06/22 11:54:51;;;;;;;6.23;2.23;;;31.10;1.00;;;;;;5048872;28;20440;-60
2022/06/22 11:57:35;;;;;;;2.20;2.00;;;31.40;1.00;;;;;;5049122;28;20453;-59
2022/06/22 12:00:30;;;;;;;2.37;2.17;;;31.30;1.00;;;;;;5049195;28;21080;-59
2022/06/22 12:02:59;;;;;;;2.40;2.20;;;30.70;1.00;;;;;;5050362;28;20421;-59
2022/06/22 12:05:40;;;;;;;4.20;2.10;;;30.30;1.00;;;;;;5052826;28;20415;-59
2022/06/22 12:08:30;;;;;;;3.37;3.03;;;30.10;1.00;;;;;;5049959;28;21070;-59
2022/06/22 12:11:14;;;;;;;2.20;2.00;;;30.10;1.00;;;;;;5050256;28;20420;-57
2022/06/22 12:17:25;;;;;;;2.47;2.27;;;30.60;1.00;;;;;;5050422;28;21439;-59
2022/06/22 12:20:33;;;;;;;4.70;2.30;;;30.90;1.00;;;;;;5049619;28;20446;-60
2022/06/22 12:23:14;;;;;;;3.20;2.40;;;31.10;1.00;;;;;;5047810;28;20466;-58
2022/06/22 12:25:49;;;;;;;2.50;2.30;;;31.50;1.00;;;;;;5049529;28;20442;-59
2022/06/22 12:28:25;;;;;;;2.40;2.20;;;31.70;1.00;;;;;;5049060;28;20445;-59
2022/06/22 12:31:18;;;;;;;3.03;2.00;;;31.30;1.00;;;;;;5049774;28;21001;-58
2022/06/22 12:33:54;;;;;;;3.07;2.77;;;31.40;1.00;;;;;;5048994;28;20546;-58
2022/06/22 12:36:33;;;;;;;2.67;2.03;;;31.50;1.00;;;;;;5047348;28;20919;-59
2022/06/22 12:39:20;;;;;;;3.00;2.23;;;31.30;1.00;;;;;;5049489;28;20473;-60
2022/06/22 12:41:57;;;;;;;3.97;2.70;;;31.10;1.00;;;;;;5049060;28;20405;-59
2022/06/22 12:44:39;;;;;;;2.53;2.33;;;31.00;1.00;;;;;;5049814;28;20453;-59
2022/06/22 12:47:20;;;;;;;2.80;2.10;;;31.10;1.00;;;;;;5048841;28;21063;-58
2022/06/22 12:50:17;;;;;;;2.53;2.00;;;31.20;1.00;;;;;;5046744;28;20436;-59
2022/06/22 12:52:50;;;;;;;2.50;2.20;;;31.30;1.00;;;;;;5048715;28;20461;-59
2022/06/22 12:55:24;;;;;;;2.97;2.53;;;31.70;1.00;;;;;;5049225;28;20439;-59
2022/06/22 12:57:59;;;;;;;3.53;2.20;;;31.80;1.00;;;;;;5049585;28;20459;-60
2022/06/22 13:00:25;;;;;;;3.30;2.70;;;32.00;1.00;;;;;;5049211;28;20441;-59
2022/06/22 13:02:57;;;;;;;2.33;2.13;;;32.30;1.00;;;;;;5049629;28;20971;-59
2022/06/22 13:05:27;;;;;;;2.60;2.13;;;32.40;1.00;;;;;;5048394;28;20413;-59
2022/06/22 13:07:59;;;;;;;2.80;2.60;;;32.30;1.00;;;;;;5048974;28;20902;-59
2022/06/22 13:10:30;;;;;;;3.10;2.10;;;32.30;1.00;;;;;;5051036;28;20442;-59
2022/06/22 13:13:17;;;;;;;3.70;2.63;;;32.10;1.00;;;;;;5059232;28;20420;-60
2022/06/22 13:16:19;;;;;;;3.87;2.30;;;31.80;1.00;;;;;;5048252;28;20450;-59
2022/06/22 13:19:24;;;;;;;2.23;2.03;;;31.60;1.00;;;;;;5045596;28;20452;-58
2022/06/22 13:22:01;;;;;;;3.97;2.30;;;31.40;1.00;;;;;;5048971;28;20457;-59
2022/06/22 13:24:52;;;;;;;6.57;2.30;;;31.40;1.00;;;;;;5048554;28;20417;-60
2022/06/22 13:27:30;;;;;;;4.83;2.60;;;31.40;1.00;;;;;;5048503;28;20416;-60
2022/06/22 13:30:18;;;;;;;6.83;3.30;;;31.40;1.00;;;;;;5048999;28;20436;-60
2022/06/22 13:32:51;;;;;;;3.07;2.87;;;31.80;1.00;;;;;;5049074;28;20981;-59
2022/06/22 13:35:29;;;;;;;2.93;2.43;;;31.80;1.00;;;;;;5050510;28;20430;-59
2022/06/22 13:38:13;;;;;;;2.87;2.40;;;32.20;1.00;;;;;;5055383;28;20405;-60
2022/06/22 13:41:08;;;;;;;3.10;2.47;;;32.30;1.00;;;;;;5048322;28;20457;-60
2022/06/22 13:44:20;;;;;;;2.87;2.67;;;32.50;1.00;;;;;;5048435;28;20496;-58
2022/06/22 13:47:08;;;;;;;4.00;2.50;;;32.30;1.00;;;;;;5050662;28;20501;-59
2022/06/22 13:49:53;;;;;;;2.73;2.53;;;32.30;1.00;;;;;;5048338;28;20474;-59
2022/06/22 13:52:33;;;;;;;2.40;2.20;;;32.50;1.00;;;;;;5048350;28;20423;-59
2022/06/22 13:55:31;;;;;;;2.20;2.00;;;32.60;1.00;;;;;;5049297;28;20530;-59
2022/06/22 13:58:16;;;;;;;4.07;2.40;;;32.80;1.00;;;;;;5046375;28;20811;-59
2022/06/22 14:00:55;;;;;;;3.23;2.53;;;32.60;1.00;;;;;;5047970;28;20503;-59
2022/06/22 14:03:45;;;;;;;3.00;2.80;;;32.40;1.00;;;;;;5048555;28;20958;-59
2022/06/22 14:06:49;;;;;;;2.80;2.50;;;32.40;1.00;;;;;;5048607;28;20867;-59
2022/06/22 14:09:35;;;;;;;2.87;2.53;;;32.20;1.00;;;;;;5046137;28;20954;-59
2022/06/22 14:12:15;;;;;;;3.30;2.30;;;32.90;1.00;;;;;;5052042;28;20441;-58
2022/06/22 14:14:58;;;;;;;3.77;2.27;;;32.80;1.00;;;;;;5048410;28;20430;-58
2022/06/22 14:17:47;;;;;;;5.00;2.77;;;32.80;1.00;;;;;;5048145;28;20533;-59
2022/06/22 14:20:27;;;;;;;3.07;2.50;;;32.90;1.00;;;;;;5048707;28;21023;-59
2022/06/22 14:22:57;;;;;;;4.10;2.50;;;32.90;1.00;;;;;;5048042;28;20500;-59